createdAt,value
2018-03-07T09:30:59.873Z,8.52
2018-03-07T09:32:01.723Z,8.59
2018-03-07T09:33:03.598Z,8.77
2018-03-07T09:34:05.475Z,8.99
2018-03-07T09:35:07.281Z,9.20
2018-03-07T09:36:09.080Z,9.51
2018-03-07T09:37:10.938Z,9.56
2018-03-07T09:38:12.793Z,9.78
2018-03-07T09:39:14.662Z,9.86
2018-03-07T09:40:28.804Z,9.97
2018-03-07T09:41:30.751Z,10.05
2018-03-07T09:42:32.600Z,10.23
2018-03-07T09:43:34.490Z,10.38
2018-03-07T09:44:36.308Z,10.53
2018-03-07T09:45:38.127Z,10.64
2018-03-07T09:46:39.986Z,10.94
2018-03-07T09:47:41.856Z,11.10
2018-03-07T09:48:43.719Z,11.25
2018-03-07T09:49:57.850Z,11.36
2018-03-07T09:50:59.730Z,11.15
2018-03-07T09:52:01.597Z,11.15
2018-03-07T09:53:03.485Z,11.24
2018-03-07T09:54:05.359Z,11.40
2018-03-07T09:55:07.199Z,11.65
2018-03-07T09:56:09.118Z,11.65
2018-03-07T09:57:10.931Z,11.49
2018-03-07T09:58:12.794Z,11.40
2018-03-07T09:59:26.929Z,11.44
2018-03-07T10:00:28.817Z,11.27
2018-03-07T10:01:30.703Z,11.22
2018-03-07T10:02:32.585Z,11.00
2018-03-07T10:03:34.392Z,10.99
2018-03-07T10:04:36.198Z,11.18
2018-03-07T10:05:38.080Z,11.37
2018-03-07T10:06:39.946Z,11.72
2018-03-07T10:07:41.812Z,11.86
2018-03-07T10:08:55.947Z,11.76
2018-03-07T10:09:57.840Z,11.35
2018-03-07T10:10:59.720Z,11.06
2018-03-07T10:12:01.611Z,10.86
2018-03-07T10:13:03.430Z,10.64
2018-03-07T10:14:05.232Z,10.61
2018-03-07T10:15:07.096Z,10.78
2018-03-07T10:16:08.955Z,10.92
2018-03-07T10:17:10.823Z,11.24
2018-03-07T10:18:24.975Z,11.27
2018-03-07T10:19:26.853Z,11.33
2018-03-07T10:20:28.722Z,11.43
2018-03-07T10:21:30.588Z,11.61
2018-03-07T10:22:32.395Z,11.82
2018-03-07T10:23:34.210Z,11.88
2018-03-07T10:24:36.078Z,11.94
2018-03-07T10:25:37.971Z,12.09
2018-03-07T10:26:39.873Z,12.28
2018-03-07T10:27:54.021Z,12.16
2018-03-07T10:28:55.907Z,12.31
2018-03-07T10:29:57.795Z,12.39
2018-03-07T10:30:59.682Z,12.34
2018-03-07T10:32:01.483Z,12.21
2018-03-07T10:33:03.305Z,12.13
2018-03-07T10:34:05.147Z,12.12
2018-03-07T10:35:07.038Z,12.16
2018-03-07T10:36:08.884Z,12.17
2018-03-07T10:37:23.041Z,12.12
2018-03-07T10:38:24.928Z,12.17
2018-03-07T10:39:26.820Z,12.24
2018-03-07T10:40:28.706Z,12.29
2018-03-07T10:41:30.531Z,12.42
2018-03-07T10:42:32.352Z,12.49
2018-03-07T10:43:34.236Z,12.54
2018-03-07T10:44:36.117Z,12.67
2018-03-07T10:45:37.983Z,12.60
2018-03-07T10:46:52.113Z,12.65
2018-03-07T10:47:53.988Z,12.68
2018-03-07T10:48:55.866Z,12.75
2018-03-07T10:49:57.735Z,12.85
2018-03-07T10:50:59.544Z,13.00
2018-03-07T10:52:01.367Z,13.07
2018-03-07T10:53:03.255Z,13.07
2018-03-07T10:54:05.114Z,13.04
2018-03-07T10:55:06.984Z,13.12
2018-03-07T10:56:21.135Z,12.93
2018-03-07T10:57:22.996Z,12.90
2018-03-07T10:58:24.864Z,12.74
2018-03-07T10:59:26.732Z,12.70
2018-03-07T11:00:28.534Z,12.67
2018-03-07T11:01:30.331Z,12.52
2018-03-07T11:02:32.272Z,12.68
2018-03-07T11:03:34.104Z,12.74
2018-03-07T11:04:35.980Z,12.96
2018-03-07T11:05:50.130Z,13.22
2018-03-07T11:06:51.994Z,13.38
2018-03-07T11:07:53.865Z,13.54
2018-03-07T11:08:55.751Z,13.63
2018-03-07T11:09:57.536Z,13.63
2018-03-07T11:10:59.351Z,13.69
2018-03-07T11:12:01.230Z,13.63
2018-03-07T11:13:03.097Z,13.54
2018-03-07T11:14:04.965Z,13.57
2018-03-07T11:15:19.097Z,13.55
2018-03-07T11:16:20.962Z,13.49
2018-03-07T11:17:22.848Z,13.49
2018-03-07T11:18:24.811Z,13.49
2018-03-07T11:19:26.645Z,13.52
2018-03-07T11:20:28.446Z,13.59
2018-03-07T11:21:30.362Z,13.59
2018-03-07T11:22:32.283Z,13.52
2018-03-07T11:23:34.163Z,13.36
2018-03-07T11:24:48.315Z,13.10
2018-03-07T11:25:50.196Z,13.05
2018-03-07T11:26:52.064Z,13.19
2018-03-07T11:27:53.953Z,13.12
2018-03-07T11:28:55.775Z,13.25
2018-03-07T11:29:57.575Z,13.26
2018-03-07T11:30:59.461Z,13.30
2018-03-07T11:32:01.343Z,13.39
2018-03-07T11:33:03.207Z,13.39
2018-03-07T11:34:17.343Z,13.41
2018-03-07T11:35:19.224Z,13.32
2018-03-07T11:36:21.090Z,13.29
2018-03-07T11:37:22.965Z,13.25
2018-03-07T11:38:24.814Z,13.33
2018-03-07T11:39:26.636Z,13.22
2018-03-07T11:40:28.522Z,13.20
2018-03-07T11:41:30.408Z,13.07
2018-03-07T11:42:32.314Z,12.96
2018-03-07T11:43:46.415Z,13.03
2018-03-07T11:44:48.285Z,12.96
2018-03-07T11:45:50.169Z,12.92
2018-03-07T11:46:52.061Z,12.90
2018-03-07T11:47:53.858Z,12.92
2018-03-07T11:48:55.670Z,12.82
2018-03-07T11:49:57.557Z,12.83
2018-03-07T11:50:59.443Z,12.77
2018-03-07T11:52:01.310Z,12.72
2018-03-07T11:53:15.456Z,12.70
2018-03-07T11:54:17.320Z,12.65
2018-03-07T11:55:19.188Z,12.60
2018-03-07T11:56:21.051Z,12.56
2018-03-07T11:57:22.856Z,12.53
2018-03-07T11:58:24.675Z,12.57
2018-03-07T11:59:26.543Z,12.50
2018-03-07T12:00:28.406Z,12.50
2018-03-07T12:01:30.313Z,12.49
2018-03-07T12:02:44.462Z,12.49
2018-03-07T12:03:46.339Z,12.45
2018-03-07T12:04:48.212Z,12.39
2018-03-07T12:05:50.092Z,12.45
2018-03-07T12:06:51.907Z,12.37
2018-03-07T12:07:53.712Z,12.29
2018-03-07T12:08:55.597Z,12.16
2018-03-07T12:09:57.530Z,12.07
2018-03-07T12:10:59.412Z,12.01
2018-03-07T12:12:13.580Z,11.94
2018-03-07T12:13:15.432Z,11.90
2018-03-07T12:14:17.306Z,11.78
2018-03-07T12:15:19.173Z,11.79
2018-03-07T12:16:20.997Z,11.70
2018-03-07T12:17:22.874Z,11.60
2018-03-07T12:18:24.734Z,11.70
2018-03-07T12:19:26.599Z,11.70
2018-03-07T12:20:28.474Z,11.69
2018-03-07T12:21:42.619Z,11.67
2018-03-07T12:22:44.479Z,11.61
2018-03-07T12:23:46.351Z,11.55
2018-03-07T12:24:48.236Z,11.57
2018-03-07T12:25:50.042Z,11.39
2018-03-07T12:26:51.861Z,11.27
2018-03-07T12:27:53.732Z,11.06
2018-03-07T12:28:55.601Z,10.79
2018-03-07T12:29:57.466Z,10.67
2018-03-07T12:31:11.614Z,10.56
2018-03-07T12:32:13.500Z,10.60
2018-03-07T12:33:15.362Z,10.60
2018-03-07T12:34:17.236Z,10.56
2018-03-07T12:35:19.124Z,10.66
2018-03-07T12:36:20.970Z,10.61
2018-03-07T12:37:22.864Z,10.70
2018-03-07T12:38:24.745Z,10.66
2018-03-07T12:39:26.633Z,10.67
2018-03-07T12:40:40.759Z,10.67
2018-03-07T12:41:42.630Z,10.63
2018-03-07T12:42:44.515Z,10.68
2018-03-07T12:43:46.402Z,10.67
2018-03-07T12:44:48.216Z,10.48
2018-03-07T12:45:50.014Z,10.59
2018-03-07T12:46:51.896Z,10.56
2018-03-07T12:47:53.761Z,10.52
2018-03-07T12:48:55.605Z,10.59
2018-03-07T12:50:09.737Z,10.60
2018-03-07T12:51:11.624Z,10.67
2018-03-07T12:52:13.492Z,10.67
2018-03-07T12:53:15.367Z,10.73
2018-03-07T12:54:17.191Z,10.66
2018-03-07T12:55:18.999Z,10.66
2018-03-07T12:56:20.877Z,10.56
2018-03-07T12:57:22.762Z,10.45
2018-03-07T12:58:24.632Z,10.30
2018-03-07T12:59:38.775Z,10.20
2018-03-07T13:00:40.645Z,10.20
2018-03-07T13:01:42.510Z,10.09
2018-03-07T13:02:44.399Z,10.11
2018-03-07T13:03:46.202Z,10.17
2018-03-07T13:04:48.015Z,10.01
2018-03-07T13:05:49.882Z,9.99
2018-03-07T13:06:51.769Z,10.08
2018-03-07T13:07:53.636Z,10.12
2018-03-07T13:09:07.786Z,10.14
2018-03-07T13:10:09.649Z,10.09
2018-03-07T13:11:11.528Z,10.15
2018-03-07T13:12:13.400Z,10.20
2018-03-07T13:13:15.220Z,10.01
2018-03-07T13:14:17.037Z,10.08
2018-03-07T13:15:18.904Z,10.08
2018-03-07T13:16:20.774Z,9.99
2018-03-07T13:17:22.659Z,9.97
2018-03-07T13:18:36.804Z,9.86
2018-03-07T13:19:38.672Z,9.83
2018-03-07T13:20:40.550Z,9.78
2018-03-07T13:21:42.416Z,9.68
2018-03-07T13:22:44.215Z,9.72
2018-03-07T13:23:46.013Z,9.68
2018-03-07T13:24:47.877Z,9.61
2018-03-07T13:25:49.753Z,9.56
2018-03-07T13:26:51.618Z,9.50
2018-03-07T13:28:05.747Z,9.53
2018-03-07T13:29:07.624Z,9.43
2018-03-07T13:30:09.496Z,9.42
2018-03-07T13:31:11.383Z,9.46
2018-03-07T13:32:13.199Z,9.40
2018-03-07T13:33:15.059Z,9.48
2018-03-07T13:34:16.910Z,9.54
2018-03-07T13:35:18.777Z,9.61
2018-03-07T13:36:20.660Z,9.57
2018-03-07T13:37:34.803Z,9.64
2018-03-07T13:38:36.666Z,9.68
2018-03-07T13:39:38.529Z,9.69
2018-03-07T13:40:40.398Z,9.68
2018-03-07T13:41:42.210Z,9.75
2018-03-07T13:42:44.005Z,9.68
2018-03-07T13:43:45.869Z,9.57
2018-03-07T13:44:47.753Z,9.58
2018-03-07T13:45:49.659Z,9.61
2018-03-07T13:47:03.807Z,9.57
2018-03-07T13:48:05.675Z,9.57
2018-03-07T13:49:07.559Z,9.53
2018-03-07T13:50:09.447Z,9.56
2018-03-07T13:51:11.256Z,9.48
2018-03-07T13:52:13.067Z,9.40
2018-03-07T13:53:14.936Z,9.48
2018-03-07T13:54:16.811Z,9.42
2018-03-07T13:55:18.680Z,9.36
2018-03-07T13:56:32.821Z,9.29
2018-03-07T13:57:34.691Z,9.36
2018-03-07T13:58:36.601Z,9.32
2018-03-07T13:59:38.534Z,9.28
2018-03-07T14:00:40.375Z,9.31
2018-03-07T14:01:42.172Z,9.08
2018-03-07T14:02:44.049Z,9.21
2018-03-07T14:03:45.911Z,9.23
2018-03-07T14:04:47.776Z,9.29
2018-03-07T14:06:01.925Z,9.32
2018-03-07T14:07:03.810Z,9.32
2018-03-07T14:08:05.692Z,9.47
2018-03-07T14:09:07.578Z,9.46
2018-03-07T14:10:09.390Z,9.46
2018-03-07T14:11:11.186Z,9.50
2018-03-07T14:12:13.049Z,9.46
2018-03-07T14:13:14.906Z,9.33
2018-03-07T14:14:16.773Z,9.26
2018-03-07T14:15:30.918Z,9.29
2018-03-07T14:16:32.804Z,9.28
2018-03-07T14:17:34.673Z,9.28
2018-03-07T14:18:36.546Z,9.38
2018-03-07T14:19:38.353Z,9.28
2018-03-07T14:20:40.152Z,9.32
2018-03-07T14:21:42.056Z,9.35
2018-03-07T14:22:43.945Z,9.36
2018-03-07T14:23:45.806Z,9.26
2018-03-07T14:24:59.957Z,9.20
2018-03-07T14:26:01.853Z,9.21
2018-03-07T14:27:03.732Z,9.32
2018-03-07T14:28:05.598Z,9.29
2018-03-07T14:29:07.401Z,9.33
2018-03-07T14:30:09.219Z,9.33
2018-03-07T14:31:11.083Z,9.28
2018-03-07T14:32:12.960Z,9.36
2018-03-07T14:33:14.854Z,9.39
2018-03-07T14:34:28.980Z,9.42
2018-03-07T14:35:30.867Z,9.46
2018-03-07T14:36:32.740Z,9.56
2018-03-07T14:37:34.623Z,9.57
2018-03-07T14:38:36.442Z,9.68
2018-03-07T14:39:38.260Z,9.78
2018-03-07T14:40:40.145Z,9.78
2018-03-07T14:41:42.025Z,9.76
2018-03-07T14:42:43.888Z,9.69
2018-03-07T14:43:58.015Z,9.78
2018-03-07T14:44:59.884Z,9.79
2018-03-07T14:46:01.750Z,9.83
2018-03-07T14:47:03.614Z,9.81
2018-03-07T14:48:05.413Z,9.76
2018-03-07T14:49:07.211Z,9.86
2018-03-07T14:50:09.072Z,9.90
2018-03-07T14:51:10.933Z,9.87
2018-03-07T14:52:12.800Z,10.02
2018-03-07T14:53:26.945Z,9.94
2018-03-07T14:54:28.816Z,9.94
2018-03-07T14:55:30.696Z,10.09
2018-03-07T14:56:32.574Z,10.01
2018-03-07T14:57:34.388Z,10.08
2018-03-07T14:58:36.204Z,9.96
2018-03-07T14:59:38.066Z,9.99
2018-03-07T15:00:39.931Z,9.96
2018-03-07T15:01:41.796Z,9.96
2018-03-07T15:02:55.990Z,10.02
2018-03-07T15:03:57.856Z,9.97
2018-03-07T15:04:59.739Z,9.97
2018-03-07T15:06:01.661Z,9.90
2018-03-07T15:07:03.433Z,9.83
2018-03-07T15:08:05.886Z,9.84
2018-03-07T15:09:07.707Z,9.87
2018-03-07T15:10:09.569Z,9.79
2018-03-07T15:11:11.450Z,9.78
2018-03-07T15:12:25.604Z,9.83
2018-03-07T15:13:27.482Z,9.79
2018-03-07T15:14:29.348Z,9.84
2018-03-07T15:15:31.254Z,9.86
2018-03-07T15:16:33.063Z,9.90
2018-03-07T15:17:34.860Z,9.87
2018-03-07T15:18:36.745Z,9.86
2018-03-07T15:19:38.613Z,9.83
2018-03-07T15:20:40.495Z,9.87
2018-03-07T15:21:54.673Z,9.91
2018-03-07T15:22:56.555Z,10.01
2018-03-07T15:23:58.434Z,10.01
2018-03-07T15:25:00.330Z,9.99
2018-03-07T15:26:02.147Z,10.04
2018-03-07T15:27:03.953Z,10.02
2018-03-07T15:28:05.840Z,10.07
2018-03-07T15:29:07.724Z,10.01
2018-03-07T15:30:09.605Z,10.04
2018-03-07T15:31:23.734Z,10.02
2018-03-07T15:32:25.603Z,10.01
2018-03-07T15:33:27.490Z,10.08
2018-03-07T15:34:29.374Z,10.01
2018-03-07T15:35:31.192Z,9.94
2018-03-07T15:36:33.005Z,10.01
2018-03-07T15:37:34.870Z,9.91
2018-03-07T15:38:36.778Z,9.83
2018-03-07T15:39:38.651Z,9.79
2018-03-07T15:40:52.820Z,9.90
2018-03-07T15:41:54.707Z,9.86
2018-03-07T15:42:56.589Z,9.90
2018-03-07T15:43:58.479Z,9.87
2018-03-07T15:45:00.297Z,9.86
2018-03-07T15:46:02.095Z,9.84
2018-03-07T15:47:03.978Z,9.87
2018-03-07T15:48:05.881Z,9.97
2018-03-07T15:49:07.768Z,9.91
2018-03-07T15:50:21.901Z,9.97
2018-03-07T15:51:23.764Z,10.04
2018-03-07T15:52:25.632Z,9.99
2018-03-07T15:53:27.538Z,9.97
2018-03-07T15:54:29.361Z,9.87
2018-03-07T15:55:31.159Z,9.86
2018-03-07T15:56:33.051Z,9.83
2018-03-07T15:57:34.964Z,9.78
2018-03-07T15:58:36.864Z,9.74
2018-03-07T15:59:51.007Z,9.78
2018-03-07T16:00:52.900Z,9.75
2018-03-07T16:01:54.761Z,9.78
2018-03-07T16:02:56.629Z,9.81
2018-03-07T16:03:58.455Z,9.74
2018-03-07T16:05:00.505Z,9.81
2018-03-07T16:06:02.373Z,9.84
2018-03-07T16:07:04.235Z,9.75
2018-03-07T16:08:06.104Z,9.79
2018-03-07T16:09:20.257Z,9.86
2018-03-07T16:10:22.143Z,9.87
2018-03-07T16:11:24.032Z,9.79
2018-03-07T16:12:25.898Z,9.79
2018-03-07T16:13:27.698Z,9.75
2018-03-07T16:14:29.492Z,9.75
2018-03-07T16:15:31.356Z,9.57
2018-03-07T16:16:33.235Z,9.54
2018-03-07T16:17:35.100Z,9.56
2018-03-07T16:18:49.249Z,9.42
2018-03-07T16:19:51.113Z,9.29
2018-03-07T16:20:52.992Z,9.32
2018-03-07T16:21:54.857Z,9.10
2018-03-07T16:22:56.668Z,9.10
2018-03-07T16:23:58.467Z,9.13
2018-03-07T16:25:00.340Z,9.11
2018-03-07T16:26:02.202Z,8.99
2018-03-07T16:27:04.061Z,8.99
2018-03-07T16:28:18.188Z,8.95
2018-03-07T16:29:20.067Z,8.86
2018-03-07T16:30:21.933Z,8.86
2018-03-07T16:31:23.789Z,8.79
2018-03-07T16:32:25.605Z,8.70
2018-03-07T16:33:27.401Z,8.76
2018-03-07T16:34:29.259Z,8.63
2018-03-07T16:35:31.122Z,8.65
2018-03-07T16:36:32.976Z,8.63
2018-03-07T16:37:47.110Z,8.56
2018-03-07T16:38:48.990Z,8.59
2018-03-07T16:39:50.870Z,8.48
2018-03-07T16:40:52.773Z,8.58
2018-03-07T16:41:54.574Z,8.47
2018-03-07T16:42:56.369Z,8.48
2018-03-07T16:43:58.225Z,8.48
2018-03-07T16:45:00.080Z,8.47
2018-03-07T16:46:01.944Z,8.45
2018-03-07T16:47:16.088Z,8.43
2018-03-07T16:48:17.959Z,8.40
2018-03-07T16:49:20.129Z,8.33
2018-03-07T16:50:21.960Z,8.41
2018-03-07T16:51:23.772Z,8.33
2018-03-07T16:52:25.567Z,8.28
2018-03-07T16:53:27.443Z,8.37
2018-03-07T16:54:29.326Z,8.29
2018-03-07T16:55:31.199Z,8.30
2018-03-07T16:56:45.324Z,8.12
2018-03-07T16:57:47.186Z,8.20
2018-03-07T16:58:49.061Z,8.11
2018-03-07T16:59:50.938Z,8.08
2018-03-07T17:00:52.732Z,8.04
2018-03-07T17:01:54.544Z,8.00
2018-03-07T17:02:56.418Z,7.98
2018-03-07T17:03:58.290Z,8.05
2018-03-07T17:05:00.148Z,7.95
2018-03-07T17:06:14.288Z,7.82
2018-03-07T17:07:16.158Z,7.93
2018-03-07T17:08:18.015Z,7.86
2018-03-07T17:09:19.873Z,7.87
2018-03-07T17:10:21.687Z,7.98
2018-03-07T17:11:23.472Z,7.97
2018-03-07T17:12:25.328Z,7.98
2018-03-07T17:13:27.203Z,7.97
2018-03-07T17:14:29.074Z,7.92
2018-03-07T17:15:43.217Z,7.98
2018-03-07T17:16:45.090Z,7.95
2018-03-07T17:17:46.939Z,7.89
2018-03-07T17:18:48.806Z,7.97
2018-03-07T17:19:50.627Z,7.87
2018-03-07T17:20:52.417Z,7.97
2018-03-07T17:21:54.274Z,8.01
2018-03-07T17:22:56.165Z,7.95
2018-03-07T17:23:58.006Z,7.98
2018-03-07T17:25:12.180Z,8.05
2018-03-07T17:26:14.041Z,8.00
2018-03-07T17:27:15.899Z,7.97
2018-03-07T17:28:17.781Z,7.98
2018-03-07T17:29:19.595Z,8.04
2018-03-07T17:30:21.400Z,8.10
2018-03-07T17:31:23.263Z,8.00
2018-03-07T17:32:25.138Z,8.02
2018-03-07T17:33:27.010Z,8.04
2018-03-07T17:34:41.134Z,8.15
2018-03-07T17:35:43.049Z,8.12
2018-03-07T17:36:44.907Z,8.08
2018-03-07T17:37:46.761Z,8.07
2018-03-07T17:38:48.552Z,8.10
2018-03-07T17:39:50.342Z,8.02
2018-03-07T17:40:52.209Z,8.15
2018-03-07T17:41:54.074Z,8.11
2018-03-07T17:42:55.930Z,8.23
2018-03-07T17:44:10.071Z,8.22
2018-03-07T17:45:11.925Z,8.26
2018-03-07T17:46:13.791Z,8.20
2018-03-07T17:47:15.665Z,8.33
2018-03-07T17:48:17.476Z,8.30
2018-03-07T17:49:19.259Z,8.33
2018-03-07T17:50:21.117Z,8.37
2018-03-07T17:51:22.971Z,8.34
2018-03-07T17:52:24.822Z,8.43
2018-03-07T17:53:39.014Z,8.44
2018-03-07T17:54:40.866Z,8.44
2018-03-07T17:55:42.720Z,8.41
2018-03-07T17:56:44.583Z,8.43
2018-03-07T17:57:46.375Z,8.38
2018-03-07T17:58:48.184Z,8.40
2018-03-07T17:59:50.057Z,8.41
2018-03-07T18:00:51.910Z,8.33
2018-03-07T18:01:53.758Z,8.30
2018-03-07T18:03:07.881Z,8.38
2018-03-07T18:04:09.740Z,8.37
2018-03-07T18:05:11.599Z,8.37
2018-03-07T18:06:13.476Z,8.29
2018-03-07T18:07:15.285Z,8.22
2018-03-07T18:08:17.084Z,8.33
2018-03-07T18:09:18.958Z,8.29
2018-03-07T18:10:20.828Z,8.36
2018-03-07T18:11:22.680Z,8.33
2018-03-07T18:12:36.853Z,8.33
2018-03-07T18:13:38.729Z,8.34
2018-03-07T18:14:40.590Z,8.19
2018-03-07T18:15:42.472Z,8.25
2018-03-07T18:16:44.265Z,8.15
2018-03-07T18:17:46.051Z,8.23
2018-03-07T18:18:47.906Z,8.23
2018-03-07T18:19:49.765Z,8.22
2018-03-07T18:20:51.643Z,8.18
2018-03-07T18:22:05.781Z,8.20
2018-03-07T18:23:07.641Z,8.05
2018-03-07T18:24:09.493Z,8.08
2018-03-07T18:25:11.354Z,8.15
2018-03-07T18:26:13.164Z,8.12
2018-03-07T18:27:14.975Z,8.10
2018-03-07T18:28:16.854Z,8.26
2018-03-07T18:29:18.731Z,8.25
2018-03-07T18:30:20.613Z,8.33
2018-03-07T18:31:34.750Z,8.33
2018-03-07T18:32:36.628Z,8.37
2018-03-07T18:33:38.490Z,8.41
2018-03-07T18:34:40.367Z,8.41
2018-03-07T18:35:42.176Z,8.29
2018-03-07T18:36:43.966Z,8.34
2018-03-07T18:37:45.840Z,8.34
2018-03-07T18:38:47.699Z,8.36
2018-03-07T18:39:49.556Z,8.36
2018-03-07T18:41:03.693Z,8.41
2018-03-07T18:42:05.550Z,8.41
2018-03-07T18:43:07.407Z,8.41
2018-03-07T18:44:09.269Z,8.45
2018-03-07T18:45:11.082Z,8.48
2018-03-07T18:46:12.890Z,8.44
2018-03-07T18:47:14.762Z,8.48
2018-03-07T18:48:16.617Z,8.53
2018-03-07T18:49:18.479Z,8.48
2018-03-07T18:50:32.622Z,8.58
2018-03-07T18:51:34.498Z,8.50
2018-03-07T18:52:36.352Z,8.52
2018-03-07T18:53:38.229Z,8.45
2018-03-07T18:54:40.043Z,8.56
2018-03-07T18:55:41.855Z,8.53
2018-03-07T18:56:43.699Z,8.48
2018-03-07T18:57:45.560Z,8.47
2018-03-07T18:58:47.434Z,8.47
2018-03-07T19:00:01.574Z,8.48
2018-03-07T19:01:03.447Z,8.44
2018-03-07T19:02:05.300Z,8.38
2018-03-07T19:03:07.156Z,8.43
2018-03-07T19:04:08.976Z,8.44
2018-03-07T19:05:10.760Z,8.52
2018-03-07T19:06:12.613Z,8.53
2018-03-07T19:07:14.465Z,8.53
2018-03-07T19:08:16.322Z,8.55
2018-03-07T19:09:30.470Z,8.55
2018-03-07T19:10:32.343Z,8.55
2018-03-07T19:11:34.222Z,8.55
2018-03-07T19:12:36.090Z,8.52
2018-03-07T19:13:37.888Z,8.62
2018-03-07T19:14:39.695Z,8.68
2018-03-07T19:15:41.552Z,8.76
2018-03-07T19:16:43.427Z,8.71
2018-03-07T19:17:45.304Z,8.77
2018-03-07T19:18:59.448Z,8.73
2018-03-07T19:20:01.321Z,8.81
2018-03-07T19:21:03.179Z,8.83
2018-03-07T19:22:05.035Z,8.77
2018-03-07T19:23:06.847Z,8.83
2018-03-07T19:24:08.637Z,8.89
2018-03-07T19:25:10.506Z,8.94
2018-03-07T19:26:12.362Z,8.96
2018-03-07T19:27:14.219Z,8.81
2018-03-07T19:28:28.358Z,8.89
2018-03-07T19:29:30.233Z,8.84
2018-03-07T19:30:32.114Z,8.91
2018-03-07T19:31:33.992Z,8.86
2018-03-07T19:32:35.800Z,8.81
2018-03-07T19:33:37.588Z,8.76
2018-03-07T19:34:39.443Z,8.73
2018-03-07T19:35:41.302Z,8.80
2018-03-07T19:36:43.157Z,8.76
2018-03-07T19:37:57.300Z,8.77
2018-03-07T19:38:59.171Z,8.76
2018-03-07T19:40:01.038Z,8.80
2018-03-07T19:41:02.900Z,8.79
2018-03-07T19:42:04.696Z,8.89
2018-03-07T19:43:06.482Z,8.89
2018-03-07T19:44:08.338Z,8.96
2018-03-07T19:45:10.190Z,8.92
2018-03-07T19:46:12.052Z,8.99
2018-03-07T19:47:26.197Z,8.94
2018-03-07T19:48:28.072Z,8.92
2018-03-07T19:49:29.946Z,8.96
2018-03-07T19:50:31.805Z,8.91
2018-03-07T19:51:33.622Z,8.94
2018-03-07T19:52:35.434Z,8.86
2018-03-07T19:53:37.304Z,8.94
2018-03-07T19:54:39.166Z,8.98
2018-03-07T19:55:41.040Z,8.96
2018-03-07T19:56:55.231Z,8.89
2018-03-07T19:57:57.108Z,8.87
2018-03-07T19:58:58.962Z,8.96
2018-03-07T20:00:00.842Z,8.95
2018-03-07T20:01:02.633Z,8.89
2018-03-07T20:02:04.416Z,8.87
2018-03-07T20:03:06.271Z,8.80
2018-03-07T20:04:08.128Z,8.80
2018-03-07T20:05:09.980Z,8.76
2018-03-07T20:06:24.124Z,8.84
2018-03-07T20:07:25.983Z,8.80
2018-03-07T20:08:27.835Z,8.80
2018-03-07T20:09:29.697Z,8.81
2018-03-07T20:10:31.505Z,8.74
2018-03-07T20:11:33.302Z,8.86
2018-03-07T20:12:35.167Z,8.81
2018-03-07T20:13:37.029Z,8.87
2018-03-07T20:14:38.901Z,8.81
2018-03-07T20:15:53.044Z,8.86
2018-03-07T20:16:54.915Z,8.79
2018-03-07T20:17:56.774Z,8.86
2018-03-07T20:18:58.631Z,8.84
2018-03-07T20:20:00.443Z,8.80
2018-03-07T20:21:02.234Z,8.84
2018-03-07T20:22:04.108Z,8.86
2018-03-07T20:23:05.983Z,8.80
2018-03-07T20:24:07.858Z,8.81
2018-03-07T20:25:21.978Z,8.80
2018-03-07T20:26:23.838Z,8.81
2018-03-07T20:27:25.714Z,8.89
2018-03-07T20:28:27.570Z,8.86
2018-03-07T20:29:29.384Z,8.80
2018-03-07T20:30:31.205Z,8.76
2018-03-07T20:31:33.023Z,8.81
2018-03-07T20:32:34.892Z,8.87
2018-03-07T20:33:36.768Z,8.87
2018-03-07T20:34:50.908Z,8.95
2018-03-07T20:35:52.791Z,8.98
2018-03-07T20:36:54.668Z,8.95
2018-03-07T20:37:56.537Z,8.96
2018-03-07T20:38:58.328Z,8.98
2018-03-07T20:40:00.122Z,8.92
2018-03-07T20:41:02.015Z,8.95
2018-03-07T20:42:03.901Z,8.87
2018-03-07T20:43:05.804Z,8.92
2018-03-07T20:44:20.006Z,8.91
2018-03-07T20:45:21.915Z,8.94
2018-03-07T20:46:23.819Z,8.87
2018-03-07T20:47:25.753Z,8.79
2018-03-07T20:48:27.584Z,8.87
2018-03-07T20:49:29.445Z,8.81
2018-03-07T20:50:31.345Z,8.84
2018-03-07T20:51:33.252Z,8.73
2018-03-07T20:52:35.171Z,8.77
2018-03-07T20:53:49.391Z,8.79
2018-03-07T20:54:51.307Z,8.68
2018-03-07T20:55:53.211Z,8.63
2018-03-07T20:56:55.127Z,8.63
2018-03-07T20:57:56.981Z,8.66
2018-03-07T20:58:58.827Z,8.68
2018-03-07T21:00:00.705Z,8.62
2018-03-07T21:01:02.560Z,8.58
2018-03-07T21:02:04.485Z,8.58
2018-03-07T21:03:18.767Z,8.59
2018-03-07T21:04:20.739Z,8.62
2018-03-07T21:05:22.783Z,8.61
2018-03-07T21:06:24.681Z,8.70
2018-03-07T21:07:26.520Z,8.66
2018-03-07T21:08:28.357Z,8.80
2018-03-07T21:09:30.258Z,8.76
2018-03-07T21:10:32.157Z,8.76
2018-03-07T21:11:34.058Z,8.63
2018-03-07T21:12:48.299Z,8.76
2018-03-07T21:13:50.221Z,8.76
2018-03-07T21:14:52.140Z,8.73
2018-03-07T21:15:54.045Z,8.62
2018-03-07T21:16:55.895Z,8.59
